createdAt,value
2018-04-24T00:01:57.727Z,13.60
2018-04-24T00:04:25.411Z,13.60
2018-04-24T00:06:53.105Z,13.60
2018-04-24T00:09:20.820Z,13.60
2018-04-24T00:11:48.474Z,13.60
2018-04-24T00:14:16.157Z,13.70
2018-04-24T00:16:44.614Z,13.70
2018-04-24T00:19:12.251Z,13.60
2018-04-24T00:21:39.937Z,13.70
2018-04-24T00:24:07.620Z,13.70
2018-04-24T00:26:36.019Z,13.70
2018-04-24T00:29:03.680Z,13.60
2018-04-24T00:31:31.489Z,13.70
2018-04-24T00:33:59.155Z,13.70
2018-04-24T00:36:26.817Z,13.70
2018-04-24T00:38:54.485Z,13.70
2018-04-24T00:41:22.147Z,13.80
2018-04-24T00:43:49.811Z,13.80
2018-04-24T00:46:17.480Z,13.80
2018-04-24T00:48:45.904Z,13.90
2018-04-24T00:51:13.595Z,13.90
2018-04-24T00:53:41.316Z,13.90
2018-04-24T00:56:08.952Z,13.90
2018-04-24T00:58:37.463Z,13.90
2018-04-24T01:01:05.145Z,13.90
2018-04-24T01:03:32.823Z,13.90
2018-04-24T01:06:00.496Z,13.90
2018-04-24T01:08:28.191Z,13.90
2018-04-24T01:10:55.855Z,13.80
2018-04-24T01:13:23.546Z,13.90
2018-04-24T01:15:51.219Z,14.00
2018-04-24T01:18:18.858Z,14.00
2018-04-24T01:20:46.550Z,13.90
2018-04-24T01:23:14.266Z,14.00
2018-04-24T01:25:41.908Z,14.00
2018-04-24T01:28:09.593Z,14.00
2018-04-24T01:30:37.297Z,14.00
2018-04-24T01:33:04.975Z,14.00
2018-04-24T01:35:33.442Z,14.00
2018-04-24T01:38:01.157Z,14.00
2018-04-24T01:40:28.796Z,14.00
2018-04-24T01:42:56.481Z,14.00
2018-04-24T01:45:24.164Z,13.90
2018-04-24T01:47:51.801Z,13.90
2018-04-24T01:50:19.462Z,14.00
2018-04-24T01:52:47.167Z,13.90
2018-04-24T01:55:14.822Z,13.90
2018-04-24T01:57:42.505Z,13.90
2018-04-24T02:00:10.943Z,13.80
2018-04-24T02:02:38.623Z,13.80
2018-04-24T02:05:06.335Z,13.80
2018-04-24T02:07:34.011Z,13.90
2018-04-24T02:10:01.697Z,13.90
2018-04-24T02:12:29.462Z,13.90
2018-04-24T02:14:57.131Z,13.90
2018-04-24T02:17:24.776Z,13.90
2018-04-24T02:19:52.448Z,13.90
2018-04-24T02:22:20.124Z,13.80
2018-04-24T02:24:48.522Z,13.80
2018-04-24T02:27:16.223Z,13.80
2018-04-24T02:29:43.883Z,13.80
2018-04-24T02:32:11.570Z,13.80
2018-04-24T02:34:40.024Z,13.70
2018-04-24T02:37:07.715Z,13.70
2018-04-24T02:39:36.132Z,13.70
2018-04-24T02:42:03.810Z,13.70
2018-04-24T02:44:31.519Z,13.70
2018-04-24T02:46:59.924Z,13.70
2018-04-24T02:49:27.695Z,13.70
2018-04-24T02:51:55.407Z,13.70
2018-04-24T02:54:23.093Z,13.70
2018-04-24T02:56:51.552Z,13.70
2018-04-24T02:59:21.549Z,13.70
2018-04-24T03:01:49.225Z,13.70
2018-04-24T03:04:16.894Z,13.70
2018-04-24T03:06:45.353Z,13.70
2018-04-24T03:09:12.996Z,13.70
2018-04-24T03:11:40.696Z,13.70
2018-04-24T03:14:09.132Z,13.60
2018-04-24T03:16:36.785Z,13.60
2018-04-24T03:19:04.481Z,13.60
2018-04-24T03:21:32.153Z,13.70
2018-04-24T03:23:59.829Z,13.60
2018-04-24T03:26:32.523Z,13.60
2018-04-24T03:29:00.210Z,13.60
2018-04-24T03:31:27.874Z,13.60
2018-04-24T03:33:55.560Z,13.50
2018-04-24T03:36:23.246Z,13.60
2018-04-24T03:38:51.656Z,13.60
2018-04-24T03:41:19.321Z,13.60
2018-04-24T03:43:46.985Z,13.60
2018-04-24T03:46:14.627Z,13.50
2018-04-24T03:48:42.283Z,13.50
2018-04-24T03:51:09.940Z,13.50
2018-04-24T03:53:37.606Z,13.50
2018-04-24T03:56:05.278Z,13.40
2018-04-24T03:58:32.985Z,13.40
2018-04-24T04:01:00.630Z,13.40
2018-04-24T04:03:28.335Z,13.40
2018-04-24T04:05:56.776Z,13.40
2018-04-24T04:08:24.452Z,13.40
2018-04-24T04:10:52.162Z,13.40
2018-04-24T04:13:19.875Z,13.50
2018-04-24T04:15:47.526Z,13.40
2018-04-24T04:18:27.187Z,13.50
2018-04-24T04:21:07.474Z,13.40
2018-04-24T04:23:46.988Z,13.40
2018-04-24T04:26:14.687Z,13.40
2018-04-24T04:28:43.226Z,13.40
2018-04-24T04:31:11.690Z,13.40
2018-04-24T04:33:39.405Z,13.40
2018-04-24T04:36:07.805Z,13.50
2018-04-24T04:38:35.490Z,13.50
2018-04-24T04:41:03.160Z,13.50
2018-04-24T04:43:31.596Z,13.30
2018-04-24T04:45:59.262Z,13.30
2018-04-24T04:48:26.930Z,13.30
2018-04-24T04:50:54.570Z,13.20
2018-04-24T04:53:22.261Z,13.20
2018-04-24T04:55:49.940Z,13.10
2018-04-24T04:58:18.371Z,13.10
2018-04-24T05:00:46.067Z,13.10
2018-04-24T05:03:14.549Z,13.20
2018-04-24T05:05:43.001Z,13.30
2018-04-24T05:08:10.682Z,13.30
2018-04-24T05:10:38.428Z,13.40
2018-04-24T05:13:06.099Z,13.40
2018-04-24T05:15:33.804Z,13.60
2018-04-24T05:18:01.509Z,13.80
2018-04-24T05:20:29.187Z,13.90
2018-04-24T05:22:57.669Z,14.10
2018-04-24T05:25:25.405Z,14.00
2018-04-24T05:27:53.046Z,14.10
2018-04-24T05:30:20.766Z,14.10
2018-04-24T05:32:49.216Z,14.20
2018-04-24T05:35:16.907Z,14.20
2018-04-24T05:37:45.348Z,14.10
2018-04-24T05:40:13.014Z,14.10
2018-04-24T05:42:40.664Z,14.30
2018-04-24T05:45:08.345Z,14.30
2018-04-24T05:47:36.019Z,14.40
2018-04-24T05:50:04.457Z,14.80
2018-04-24T05:52:32.154Z,14.70
2018-04-24T05:54:59.822Z,15.00
2018-04-24T05:57:28.231Z,15.20
2018-04-24T05:59:55.903Z,15.20
2018-04-24T06:02:23.599Z,15.20
2018-04-24T06:04:51.240Z,15.10
2018-04-24T06:07:18.980Z,15.10
2018-04-24T06:09:46.643Z,14.90
2018-04-24T06:12:14.287Z,14.90
2018-04-24T06:14:42.005Z,15.00
2018-04-24T06:17:09.672Z,14.90
2018-04-24T06:19:37.315Z,15.00
2018-04-24T06:22:04.979Z,14.90
2018-04-24T06:24:32.677Z,15.00
2018-04-24T06:27:01.101Z,15.50
2018-04-24T06:29:28.775Z,15.50
2018-04-24T06:31:56.443Z,15.80
2018-04-24T06:34:24.080Z,16.20
2018-04-24T06:36:52.268Z,16.40
2018-04-24T06:39:19.942Z,16.60
2018-04-24T06:41:47.644Z,16.70
2018-04-24T06:44:15.311Z,16.80
2018-04-24T06:46:43.007Z,16.90
2018-04-24T06:49:10.675Z,16.90
2018-04-24T06:51:38.396Z,16.80
2018-04-24T06:54:06.091Z,16.80
2018-04-24T06:56:33.742Z,17.00
2018-04-24T06:59:01.418Z,17.00
2018-04-24T07:01:29.102Z,17.20
2018-04-24T07:03:57.510Z,17.80
2018-04-24T07:06:25.252Z,17.80
2018-04-24T07:08:52.891Z,17.90
2018-04-24T07:11:20.554Z,17.90
2018-04-24T07:13:48.243Z,17.90
2018-04-24T07:16:15.918Z,17.60
2018-04-24T07:18:43.541Z,17.40
2018-04-24T07:21:12.004Z,17.20
2018-04-24T07:23:39.669Z,17.20
2018-04-24T07:26:07.376Z,17.00
2018-04-24T07:28:35.013Z,17.00
2018-04-24T07:31:03.438Z,16.60
2018-04-24T07:33:31.081Z,16.60
2018-04-24T07:35:58.754Z,16.30
2018-04-24T07:38:26.471Z,16.30
2018-04-24T07:40:54.931Z,16.30
2018-04-24T07:43:22.670Z,16.30
2018-04-24T07:45:50.453Z,16.50
2018-04-24T07:48:18.152Z,16.70
2018-04-24T07:50:45.853Z,17.00
2018-04-24T07:53:13.538Z,17.50
2018-04-24T07:55:41.180Z,18.00
2018-04-24T07:58:08.992Z,18.20
2018-04-24T08:00:36.694Z,18.40
2018-04-24T08:03:04.362Z,18.60
2018-04-24T08:05:32.026Z,18.80
2018-04-24T08:07:59.879Z,18.90
2018-04-24T08:10:27.597Z,18.90
2018-04-24T08:12:55.325Z,18.90
2018-04-24T08:15:23.031Z,19.00
2018-04-24T08:17:50.702Z,18.90
2018-04-24T08:20:18.427Z,18.60
2018-04-24T08:22:46.957Z,18.80
2018-04-24T08:25:14.643Z,18.80
2018-04-24T08:27:42.500Z,18.80
2018-04-24T08:30:10.239Z,18.90
2018-04-24T08:32:37.919Z,19.00
2018-04-24T08:35:05.602Z,19.40
2018-04-24T08:37:33.262Z,19.40
2018-04-24T08:40:00.921Z,19.60
2018-04-24T08:42:28.604Z,19.60
2018-04-24T08:44:57.038Z,19.40
2018-04-24T08:47:24.679Z,19.40
2018-04-24T08:49:52.360Z,19.20
2018-04-24T08:52:20.049Z,19.10
2018-04-24T08:54:47.671Z,19.20
2018-04-24T08:57:15.375Z,19.50
2018-04-24T08:59:43.816Z,20.40
2018-04-24T09:02:11.443Z,20.40
2018-04-24T09:04:39.904Z,20.50
2018-04-24T09:07:08.347Z,20.10
2018-04-24T09:09:35.994Z,20.10
2018-04-24T09:12:03.663Z,20.00
2018-04-24T09:14:31.326Z,19.80
2018-04-24T09:16:58.991Z,19.60
2018-04-24T09:19:26.711Z,20.10
2018-04-24T09:21:54.432Z,20.60
2018-04-24T09:24:22.835Z,21.50
2018-04-24T09:26:50.594Z,21.50
2018-04-24T09:29:18.219Z,21.70
2018-04-24T09:31:45.858Z,21.90
2018-04-24T09:34:13.529Z,22.00
2018-04-24T09:36:41.209Z,21.70
2018-04-24T09:39:09.653Z,20.80
2018-04-24T09:41:37.339Z,20.80
2018-04-24T09:44:05.037Z,20.50
2018-04-24T09:46:32.677Z,20.20
2018-04-24T09:49:00.392Z,19.90
2018-04-24T09:51:28.073Z,19.60
2018-04-24T09:53:55.753Z,19.50
2018-04-24T09:56:24.226Z,20.60
2018-04-24T09:58:51.952Z,20.60
2018-04-24T10:01:19.700Z,21.30
2018-04-24T10:03:47.367Z,21.90
2018-04-24T10:06:15.078Z,22.40
2018-04-24T10:08:43.477Z,22.00
2018-04-24T10:11:11.150Z,22.00
2018-04-24T10:13:39.690Z,21.40
2018-04-24T10:16:07.262Z,21.40
2018-04-24T10:18:35.719Z,20.80
2018-04-24T10:21:03.422Z,20.80
2018-04-24T10:23:31.092Z,21.10
2018-04-24T10:25:58.763Z,21.50
2018-04-24T10:28:26.452Z,21.60
2018-04-24T10:30:54.102Z,21.80
2018-04-24T10:33:21.780Z,21.90
2018-04-24T10:35:49.468Z,21.90
2018-04-24T10:38:17.876Z,21.10
2018-04-24T10:40:45.615Z,21.10
2018-04-24T10:43:13.271Z,20.50
2018-04-24T10:45:40.930Z,20.10
2018-04-24T10:48:08.600Z,20.00
2018-04-24T10:50:36.291Z,20.10
2018-04-24T10:53:03.930Z,20.40
2018-04-24T10:55:31.612Z,20.70
2018-04-24T10:57:59.289Z,20.90
2018-04-24T11:00:26.923Z,20.90
2018-04-24T11:02:54.593Z,20.90
2018-04-24T11:05:22.253Z,21.00
2018-04-24T11:07:49.886Z,21.00
2018-04-24T11:10:17.561Z,21.10
2018-04-24T11:12:45.219Z,21.10
2018-04-24T11:15:12.868Z,20.80
2018-04-24T11:17:40.558Z,20.90
2018-04-24T11:20:08.236Z,20.90
2018-04-24T11:22:35.890Z,21.00
2018-04-24T11:25:03.602Z,21.20
2018-04-24T11:27:31.262Z,21.40
2018-04-24T11:29:58.887Z,21.70
2018-04-24T11:32:26.580Z,21.90
2018-04-24T11:34:54.283Z,21.80
2018-04-24T11:37:21.923Z,21.50
2018-04-24T11:39:49.590Z,21.30
2018-04-24T11:42:17.281Z,21.20
2018-04-24T11:44:44.930Z,21.20
2018-04-24T11:47:12.651Z,21.20
2018-04-24T11:49:40.389Z,21.10
2018-04-24T11:52:07.980Z,21.30
2018-04-24T11:54:35.719Z,21.40
2018-04-24T11:57:04.296Z,21.80
2018-04-24T11:59:31.932Z,21.80
2018-04-24T12:01:59.596Z,21.70
2018-04-24T12:04:27.275Z,21.60
2018-04-24T12:06:55.710Z,21.60
2018-04-24T12:09:23.383Z,21.50
2018-04-24T12:11:51.040Z,21.40
2018-04-24T12:14:18.668Z,21.20
2018-04-24T12:16:46.348Z,21.00
2018-04-24T12:19:13.993Z,21.10
2018-04-24T12:21:41.623Z,21.10
2018-04-24T12:24:10.052Z,21.20
2018-04-24T12:26:37.745Z,21.20
2018-04-24T12:29:06.169Z,21.50
2018-04-24T12:31:34.783Z,21.50
2018-04-24T12:34:02.464Z,21.50
2018-04-24T12:36:30.868Z,21.60
2018-04-24T12:38:58.588Z,21.60
2018-04-24T12:41:26.278Z,21.60
2018-04-24T12:43:53.903Z,21.70
2018-04-24T12:46:21.582Z,21.70
2018-04-24T12:48:50.025Z,21.70
2018-04-24T12:51:17.677Z,21.70
2018-04-24T12:53:45.373Z,21.90
2018-04-24T12:56:13.034Z,22.00
2018-04-24T12:58:40.734Z,22.10
2018-04-24T13:01:08.404Z,22.30
2018-04-24T13:03:36.089Z,22.40
2018-04-24T13:06:03.728Z,22.10
2018-04-24T13:08:32.170Z,21.70
2018-04-24T13:11:00.590Z,21.60
2018-04-24T13:13:28.243Z,21.60
2018-04-24T13:15:55.938Z,21.50
2018-04-24T13:18:23.634Z,21.40
2018-04-24T13:20:52.051Z,21.50
2018-04-24T13:23:19.722Z,21.50
2018-04-24T13:25:47.464Z,21.60
2018-04-24T13:28:15.154Z,21.70
2018-04-24T13:30:43.653Z,21.70
2018-04-24T13:33:11.325Z,21.70
2018-04-24T13:35:38.972Z,21.80
2018-04-24T13:38:06.680Z,21.90
2018-04-24T13:40:34.670Z,22.00
2018-04-24T13:43:02.400Z,21.90
2018-04-24T13:45:30.039Z,22.00
2018-04-24T13:47:58.477Z,22.20
2018-04-24T13:50:26.111Z,22.10
2018-04-24T13:52:54.584Z,22.20
2018-04-24T13:55:22.260Z,22.20
2018-04-24T13:57:49.902Z,22.10
2018-04-24T14:00:17.599Z,22.10
2018-04-24T14:02:45.304Z,22.10
2018-04-24T14:05:13.700Z,21.90
2018-04-24T14:07:41.367Z,21.90
2018-04-24T14:10:09.914Z,21.80
2018-04-24T14:12:38.315Z,21.80
2018-04-24T14:15:06.049Z,21.80
2018-04-24T14:17:34.735Z,21.90
2018-04-24T14:20:03.154Z,22.00
2018-04-24T14:22:30.835Z,21.90
2018-04-24T14:24:58.569Z,22.00
2018-04-24T14:27:26.204Z,21.90
2018-04-24T14:29:54.664Z,21.90
2018-04-24T14:32:22.333Z,21.80
2018-04-24T14:34:50.811Z,21.70
2018-04-24T14:37:18.591Z,21.70
2018-04-24T14:39:46.232Z,21.70
2018-04-24T14:42:13.997Z,21.70
2018-04-24T14:44:42.468Z,21.50
2018-04-24T14:47:10.104Z,21.50
2018-04-24T14:49:37.792Z,21.50
2018-04-24T14:52:05.477Z,21.50
2018-04-24T14:54:33.886Z,21.50
2018-04-24T14:57:01.594Z,21.50
2018-04-24T14:59:30.038Z,21.40
2018-04-24T15:01:58.457Z,21.40
2018-04-24T15:04:26.902Z,21.30
2018-04-24T15:09:28.370Z,21.10
2018-04-24T15:11:56.043Z,21.10
2018-04-24T15:14:23.685Z,21.20
2018-04-24T15:16:51.368Z,21.20
2018-04-24T15:19:19.998Z,21.20
2018-04-24T15:21:47.645Z,21.30
2018-04-24T15:24:15.318Z,21.20
2018-04-24T15:26:43.000Z,21.20
2018-04-24T15:29:10.641Z,21.10
2018-04-24T15:31:38.306Z,21.00
2018-04-24T15:34:05.983Z,20.90
2018-04-24T15:36:33.598Z,20.90
2018-04-24T15:39:01.285Z,20.90
2018-04-24T15:41:28.984Z,20.90
2018-04-24T15:43:56.639Z,20.80
2018-04-24T15:46:24.343Z,20.80
2018-04-24T15:48:52.078Z,20.70
2018-04-24T15:51:20.521Z,20.70
2018-04-24T15:53:48.209Z,20.70
2018-04-24T15:56:15.910Z,20.70
2018-04-24T15:58:43.540Z,20.60
2018-04-24T16:01:11.967Z,20.50
2018-04-24T16:03:39.625Z,20.50
2018-04-24T16:06:07.288Z,20.40
2018-04-24T16:08:34.985Z,20.50
2018-04-24T16:11:02.651Z,20.50
2018-04-24T16:13:30.366Z,20.50
2018-04-24T16:15:58.037Z,20.40
2018-04-24T16:18:25.703Z,20.30
2018-04-24T16:20:53.366Z,20.20
2018-04-24T16:23:21.105Z,20.10
2018-04-24T16:25:48.803Z,20.10
2018-04-24T16:28:16.495Z,20.10
2018-04-24T16:30:44.938Z,20.00
2018-04-24T16:33:12.775Z,20.00
2018-04-24T16:35:40.472Z,20.10
2018-04-24T16:38:08.256Z,20.10
2018-04-24T16:40:36.723Z,20.10
2018-04-24T16:43:04.375Z,20.10
2018-04-24T16:45:32.058Z,20.10
2018-04-24T16:48:00.511Z,20.20
2018-04-24T16:50:28.200Z,20.20
2018-04-24T16:52:56.670Z,20.20
2018-04-24T16:55:25.106Z,20.20
2018-04-24T16:57:52.742Z,20.20
2018-04-24T17:00:20.415Z,20.10
2018-04-24T17:02:48.146Z,20.00
2018-04-24T17:05:16.633Z,19.90
2018-04-24T17:07:45.081Z,19.80
2018-04-24T17:10:12.734Z,19.80
2018-04-24T17:12:40.368Z,19.80
2018-04-24T17:15:08.051Z,19.70
2018-04-24T17:17:35.749Z,19.70
2018-04-24T17:20:03.574Z,19.60
2018-04-24T17:22:31.230Z,19.60
2018-04-24T17:24:58.969Z,19.50
2018-04-24T17:27:26.639Z,19.50
2018-04-24T17:29:54.428Z,19.40
2018-04-24T17:32:22.177Z,19.50
2018-04-24T17:34:49.825Z,19.40
2018-04-24T17:37:17.534Z,19.40
2018-04-24T17:39:45.246Z,19.30
2018-04-24T17:42:12.894Z,19.20
2018-04-24T17:44:40.542Z,19.10
2018-04-24T17:47:08.298Z,18.90
2018-04-24T17:49:35.948Z,18.80
2018-04-24T17:52:03.662Z,18.70
2018-04-24T17:54:31.346Z,18.70
2018-04-24T17:56:59.738Z,18.50
2018-04-24T17:59:28.443Z,18.40
2018-04-24T18:01:56.286Z,18.40
2018-04-24T18:04:24.066Z,18.30
2018-04-24T18:06:52.095Z,18.20
2018-04-24T18:09:20.059Z,18.10
2018-04-24T18:11:48.624Z,17.90
2018-04-24T18:14:16.447Z,17.80
2018-04-24T18:16:44.331Z,17.70
2018-04-24T18:19:12.037Z,17.60
2018-04-24T18:21:40.697Z,17.40
2018-04-24T18:24:08.552Z,17.40
2018-04-24T18:26:36.383Z,17.30
2018-04-24T18:29:04.189Z,17.20
2018-04-24T18:31:31.881Z,17.00
2018-04-24T18:33:59.605Z,16.90
2018-04-24T18:36:27.308Z,16.80
2018-04-24T18:38:55.884Z,16.40
2018-04-24T18:41:23.662Z,16.50
2018-04-24T18:43:51.419Z,16.30
2018-04-24T18:46:19.186Z,16.10
2018-04-24T18:48:47.587Z,15.90
2018-04-24T18:51:15.290Z,15.80
2018-04-24T18:53:43.076Z,15.70
2018-04-24T18:56:11.512Z,15.50
2018-04-24T18:58:39.254Z,15.50
2018-04-24T19:01:07.728Z,15.30
2018-04-24T19:03:35.400Z,15.30
2018-04-24T19:06:03.203Z,15.20
2018-04-24T19:08:30.949Z,15.10
2018-04-24T19:10:58.720Z,15.00
2018-04-24T19:13:26.562Z,14.90
2018-04-24T19:15:54.407Z,14.80
2018-04-24T19:18:27.978Z,14.70
2018-04-24T19:20:55.675Z,14.60
2018-04-24T19:23:23.353Z,14.50
2018-04-24T19:25:51.150Z,14.50
2018-04-24T19:28:19.583Z,14.30
2018-04-24T19:30:47.264Z,14.30
2018-04-24T19:33:15.085Z,14.20
2018-04-24T19:35:42.949Z,14.20
2018-04-24T19:38:10.704Z,14.10
2018-04-24T19:40:44.182Z,14.00
2018-04-24T19:43:11.965Z,14.00
2018-04-24T19:45:39.702Z,13.90
2018-04-24T19:48:08.245Z,13.80
2018-04-24T19:50:36.933Z,13.70
2018-04-24T19:53:04.812Z,13.70
2018-04-24T19:55:32.669Z,13.70
2018-04-24T19:58:00.600Z,13.60
2018-04-24T20:00:28.313Z,13.60
2018-04-24T20:02:56.076Z,13.50
2018-04-24T20:05:23.918Z,13.40
2018-04-24T20:07:51.628Z,13.40
2018-04-24T20:10:19.392Z,13.30
2018-04-24T20:12:47.293Z,13.30
2018-04-24T20:15:15.083Z,13.20
2018-04-24T20:17:42.972Z,13.20
2018-04-24T20:20:10.823Z,13.10
2018-04-24T20:22:38.566Z,13.10
2018-04-24T20:25:06.298Z,13.00
2018-04-24T20:27:34.012Z,13.00
2018-04-24T20:30:02.562Z,12.90
2018-04-24T20:32:30.236Z,12.90
2018-04-24T20:34:57.909Z,12.90
2018-04-24T20:37:25.562Z,12.80
2018-04-24T20:39:53.302Z,12.80
2018-04-24T20:42:20.963Z,12.80
2018-04-24T20:44:48.598Z,12.80
2018-04-24T20:47:16.642Z,12.70
2018-04-24T20:49:45.002Z,12.70
2018-04-24T20:52:13.548Z,12.70
2018-04-24T20:54:41.335Z,12.70
2018-04-24T20:57:09.035Z,12.60
2018-04-24T20:59:36.830Z,12.60
2018-04-24T21:02:04.663Z,12.60
2018-04-24T21:04:32.603Z,12.50
2018-04-24T21:07:00.892Z,12.50
2018-04-24T21:09:28.747Z,12.40
2018-04-24T21:11:57.233Z,12.40
2018-04-24T21:14:24.992Z,12.40
2018-04-24T21:16:53.732Z,12.40
2018-04-24T21:19:21.448Z,12.30
2018-04-24T21:21:49.359Z,12.30
2018-04-24T21:24:18.133Z,12.30
2018-04-24T21:26:45.824Z,12.30
2018-04-24T21:29:13.534Z,12.20
2018-04-24T21:31:41.283Z,12.20
2018-04-24T21:34:09.152Z,12.20
2018-04-24T21:36:36.929Z,12.10
2018-04-24T21:39:04.996Z,12.10
2018-04-24T21:41:32.871Z,12.10
2018-04-24T21:44:00.726Z,12.10
2018-04-24T21:46:28.637Z,12.00
2018-04-24T21:48:56.306Z,12.00
2018-04-24T21:51:23.988Z,12.00
2018-04-24T21:53:51.657Z,12.00
2018-04-24T21:56:19.320Z,11.90
2018-04-24T21:58:46.963Z,11.90
2018-04-24T22:01:15.395Z,11.80
2018-04-24T22:03:43.058Z,11.80
2018-04-24T22:06:11.522Z,11.80
2018-04-24T22:08:39.190Z,11.70
2018-04-24T22:11:06.855Z,11.80
2018-04-24T22:13:34.489Z,11.80
2018-04-24T22:16:02.174Z,11.80
2018-04-24T22:18:29.846Z,11.80
2018-04-24T22:20:57.475Z,11.80
2018-04-24T22:23:25.132Z,11.80
2018-04-24T22:25:52.815Z,11.90
2018-04-24T22:28:20.472Z,11.90
2018-04-24T22:30:48.138Z,12.00
2018-04-24T22:33:15.831Z,12.00
2018-04-24T22:35:44.281Z,12.00
2018-04-24T22:38:11.948Z,12.00
2018-04-24T22:40:39.654Z,12.10
2018-04-24T22:43:07.286Z,12.10
2018-04-24T22:45:34.979Z,12.10
2018-04-24T22:48:02.679Z,12.10
2018-04-24T22:50:30.317Z,12.10
2018-04-24T22:52:58.005Z,12.10
2018-04-24T22:55:25.719Z,12.10
2018-04-24T22:57:53.344Z,12.00
2018-04-24T23:00:21.037Z,12.10
2018-04-24T23:02:48.703Z,12.10
2018-04-24T23:05:16.348Z,12.10
2018-04-24T23:07:44.789Z,12.10
2018-04-24T23:10:11.960Z,12.10
2018-04-24T23:12:52.217Z,12.00
2018-04-24T23:15:32.559Z,12.10
2018-04-24T23:18:12.165Z,12.00
2018-04-24T23:20:39.350Z,12.00
2018-04-24T23:23:07.041Z,12.10
2018-04-24T23:25:35.503Z,12.00
2018-04-24T23:28:03.177Z,11.90
2018-04-24T23:30:31.579Z,11.80
2018-04-24T23:32:59.247Z,11.80
2018-04-24T23:35:26.955Z,11.80
2018-04-24T23:37:54.594Z,11.70
2018-04-24T23:40:22.253Z,11.70
2018-04-24T23:42:49.939Z,11.70
2018-04-24T23:45:17.627Z,11.70
2018-04-24T23:47:45.304Z,11.70
2018-04-24T23:50:12.988Z,11.70
2018-04-24T23:52:40.687Z,11.70
2018-04-24T23:55:09.181Z,11.70
2018-04-24T23:57:37.650Z,11.70
